Twisp, WA (98856)

8:05 AM PST on December 10, 2016 (GMT -0800)
Homestead Hills | | Change Station
Active Advisory: Winter Weather Advisory

Elev 1936 ft 48.38 °N, 120.11 °W | Updated 9 minutes ago

Partly Cloudy
Partly Cloudy
11.4 °F
Feels Like 11 °F
N
1.0
Wind Variable Wind from SE
Gusts 2.0 mph

Today
High -- | Low -- °F
--% Chance of Precip.
Yesterday
High -- | Low -- °F
Precip. -- in
Pressure 29.98 in
Visibility 9.0 miles
Clouds Overcast 700 ft
Windchill 11 °F
Dew Point 9 °F
Humidity 90%
Rainfall 0.00 in
Snow Depth Not available.
7:41 AM 4:05 PM
Waxing Gibbous, 84% visible
METAR KOMK 101553Z AUTO 00000KT 9SM OVC007 M08/M10 A2991 RMK AO2 SLP151 T10831100
Pressure 29.98 in
Visibility 9.0 miles
Clouds Overcast 700 ft
Windchill 11 °F
Dew Point 9 °F
Humidity 90%
Rainfall 0.00 in
Snow Depth Not available.
7:41 AM 4:05 PM
Waxing Gibbous, 84% visible
METAR KOMK 101553Z AUTO 00000KT 9SM OVC007 M08/M10 A2991 RMK AO2 SLP151 T10831100

10-Day Weather Forecast

Almanac

Astronomy

Dec. 10, 2016 Rise Set
Actual Time
Civil Twilight
Nautical Twilight
Astronomical Twilight
Moon
Length of Visible Light
Length of Day
Tomorrow will be .
, % of the Moon is Illuminated

Today's Extremes

State Highs State Lows

Community

WunderPhotos

Upload Photos

1,956,569 photos uploaded!

WunderBlog® & News

Nearby

Air Quality

  Air Quality AQ Index Pollutant
Not available.

Snow Depth

Station Depth Elevation

Earthquake Activity

City Distance Mag. Time & Date
Minimum magnitude displayed is 2.5.

Coastal Water Temperatures

Place Temperature

Stations

Nearby Weather Stations

Station Location Temp. Windchill Dew Point Humidity Wind Precip. Elev Updated Type
                   

Watches & Warnings

Winter Weather Advisory
Issued: 3:57 AM PST Dec. 10, 2016 – National Weather Service

... Winter Weather Advisory now in effect until 10 am PST this
morning...

* locations... Stehekin... Lake Wenatchee... Blewett Pass

* snow accumulations... up to an additional 3 inches mainly near the
Cascade crest. Storm total snow accumulations 2 to 6 valley and 6 to 12
inches mountains... especially near the Cascade crest.

* Timing... now through Saturday afternoon.

* Impacts... hazardous travel can be expected due to snow covered
roads and reduced visibility.

* Web page: for a detailed view of the hazard area visit
http://www.Wrh.NOAA.Gov/map/?Wfo=otx.

Precautionary/preparedness actions...

A Winter Weather Advisory for snow means that periods of snow
will cause primarily travel difficulties. Be prepared for snow
covered roads and limited visibilities... and use caution while
driving.